sensor_id;sensor_type;location;lat;lon;timestamp;P1;durP1;ratioP1;P2;durP2;ratioP2
76373;SDS011;65197;50.164;8.012;2023-11-25T00:01:33;9.32;;;3.55;;
76373;SDS011;65197;50.164;8.012;2023-11-25T00:03:59;7.95;;;4.35;;
76373;SDS011;65197;50.164;8.012;2023-11-25T00:06:24;8.93;;;4.30;;
76373;SDS011;65197;50.164;8.012;2023-11-25T00:08:50;6.57;;;3.65;;
76373;SDS011;65197;50.164;8.012;2023-11-25T00:11:15;9.55;;;3.65;;
76373;SDS011;65197;50.164;8.012;2023-11-25T00:13:41;8.75;;;3.97;;
76373;SDS011;65197;50.164;8.012;2023-11-25T00:16:07;9.25;;;3.60;;
76373;SDS011;65197;50.164;8.012;2023-11-25T00:18:33;12.80;;;4.13;;
76373;SDS011;65197;50.164;8.012;2023-11-25T00:20:58;9.25;;;4.07;;
76373;SDS011;65197;50.164;8.012;2023-11-25T00:23:24;8.98;;;3.63;;
76373;SDS011;65197;50.164;8.012;2023-11-25T00:25:49;12.68;;;4.68;;
76373;SDS011;65197;50.164;8.012;2023-11-25T00:28:18;6.68;;;4.07;;
76373;SDS011;65197;50.164;8.012;2023-11-25T00:30:45;10.63;;;4.35;;
76373;SDS011;65197;50.164;8.012;2023-11-25T00:33:11;8.93;;;4.05;;
76373;SDS011;65197;50.164;8.012;2023-11-25T00:35:36;9.90;;;4.07;;
76373;SDS011;65197;50.164;8.012;2023-11-25T00:38:01;12.00;;;4.35;;
76373;SDS011;65197;50.164;8.012;2023-11-25T00:40:27;10.98;;;4.03;;
76373;SDS011;65197;50.164;8.012;2023-11-25T00:42:53;8.30;;;3.83;;
76373;SDS011;65197;50.164;8.012;2023-11-25T00:45:19;7.28;;;3.75;;
76373;SDS011;65197;50.164;8.012;2023-11-25T00:47:46;6.70;;;3.55;;
76373;SDS011;65197;50.164;8.012;2023-11-25T00:50:11;9.85;;;3.40;;
76373;SDS011;65197;50.164;8.012;2023-11-25T00:52:40;6.35;;;3.55;;
76373;SDS011;65197;50.164;8.012;2023-11-25T00:55:06;8.60;;;3.88;;
76373;SDS011;65197;50.164;8.012;2023-11-25T00:57:32;8.02;;;3.40;;
76373;SDS011;65197;50.164;8.012;2023-11-25T00:59:57;7.05;;;3.70;;
76373;SDS011;65197;50.164;8.012;2023-11-25T01:02:23;6.82;;;3.13;;
76373;SDS011;65197;50.164;8.012;2023-11-25T01:04:49;7.10;;;3.17;;
76373;SDS011;65197;50.164;8.012;2023-11-25T01:07:17;7.25;;;3.38;;
76373;SDS011;65197;50.164;8.012;2023-11-25T01:09:43;7.95;;;3.10;;
76373;SDS011;65197;50.164;8.012;2023-11-25T01:12:08;10.98;;;3.53;;
76373;SDS011;65197;50.164;8.012;2023-11-25T01:14:34;7.10;;;3.08;;
76373;SDS011;65197;50.164;8.012;2023-11-25T01:16:59;9.00;;;3.13;;
76373;SDS011;65197;50.164;8.012;2023-11-25T01:19:25;9.25;;;3.05;;
76373;SDS011;65197;50.164;8.012;2023-11-25T01:21:53;8.32;;;3.33;;
76373;SDS011;65197;50.164;8.012;2023-11-25T01:24:18;8.98;;;3.78;;
76373;SDS011;65197;50.164;8.012;2023-11-25T01:26:45;8.77;;;3.30;;
76373;SDS011;65197;50.164;8.012;2023-11-25T01:29:10;9.57;;;3.40;;
76373;SDS011;65197;50.164;8.012;2023-11-25T01:31:36;7.68;;;3.47;;
76373;SDS011;65197;50.164;8.012;2023-11-25T01:34:01;7.63;;;3.53;;
76373;SDS011;65197;50.164;8.012;2023-11-25T01:36:27;7.72;;;3.42;;
76373;SDS011;65197;50.164;8.012;2023-11-25T01:38:52;6.72;;;3.33;;
76373;SDS011;65197;50.164;8.012;2023-11-25T01:41:19;9.57;;;3.58;;
76373;SDS011;65197;50.164;8.012;2023-11-25T01:43:44;10.68;;;4.40;;
76373;SDS011;65197;50.164;8.012;2023-11-25T01:46:10;8.55;;;3.40;;
76373;SDS011;65197;50.164;8.012;2023-11-25T01:48:41;6.97;;;3.13;;
76373;SDS011;65197;50.164;8.012;2023-11-25T01:51:08;8.43;;;3.97;;
76373;SDS011;65197;50.164;8.012;2023-11-25T01:53:34;7.13;;;2.83;;
76373;SDS011;65197;50.164;8.012;2023-11-25T01:56:01;5.85;;;2.63;;
76373;SDS011;65197;50.164;8.012;2023-11-25T01:58:27;6.13;;;3.13;;
76373;SDS011;65197;50.164;8.012;2023-11-25T02:00:54;5.35;;;3.00;;
76373;SDS011;65197;50.164;8.012;2023-11-25T02:03:20;8.73;;;3.72;;
76373;SDS011;65197;50.164;8.012;2023-11-25T02:05:46;8.55;;;3.70;;
76373;SDS011;65197;50.164;8.012;2023-11-25T02:08:12;8.32;;;3.33;;
76373;SDS011;65197;50.164;8.012;2023-11-25T02:10:38;9.00;;;3.88;;
76373;SDS011;65197;50.164;8.012;2023-11-25T02:13:07;7.65;;;3.55;;
76373;SDS011;65197;50.164;8.012;2023-11-25T02:15:36;8.60;;;3.65;;
76373;SDS011;65197;50.164;8.012;2023-11-25T02:18:02;6.50;;;3.70;;
76373;SDS011;65197;50.164;8.012;2023-11-25T02:20:34;7.97;;;3.63;;
76373;SDS011;65197;50.164;8.012;2023-11-25T02:23:10;8.25;;;3.67;;
76373;SDS011;65197;50.164;8.012;2023-11-25T02:25:43;8.13;;;3.97;;
76373;SDS011;65197;50.164;8.012;2023-11-25T02:28:10;9.02;;;4.60;;
76373;SDS011;65197;50.164;8.012;2023-11-25T02:30:36;7.47;;;4.20;;
76373;SDS011;65197;50.164;8.012;2023-11-25T02:33:01;8.27;;;4.38;;
76373;SDS011;65197;50.164;8.012;2023-11-25T02:35:27;11.98;;;4.57;;
76373;SDS011;65197;50.164;8.012;2023-11-25T02:37:52;9.80;;;4.85;;
76373;SDS011;65197;50.164;8.012;2023-11-25T02:40:18;8.10;;;4.50;;
76373;SDS011;65197;50.164;8.012;2023-11-25T02:42:44;10.88;;;4.53;;
76373;SDS011;65197;50.164;8.012;2023-11-25T02:45:17;9.55;;;4.65;;
76373;SDS011;65197;50.164;8.012;2023-11-25T02:47:44;8.63;;;4.60;;
76373;SDS011;65197;50.164;8.012;2023-11-25T02:50:13;10.65;;;4.88;;
76373;SDS011;65197;50.164;8.012;2023-11-25T02:52:42;8.13;;;4.50;;
76373;SDS011;65197;50.164;8.012;2023-11-25T02:55:08;9.18;;;5.38;;
76373;SDS011;65197;50.164;8.012;2023-11-25T02:57:38;14.80;;;6.15;;
76373;SDS011;65197;50.164;8.012;2023-11-25T03:00:08;13.93;;;5.90;;
76373;SDS011;65197;50.164;8.012;2023-11-25T03:02:41;13.98;;;6.70;;
76373;SDS011;65197;50.164;8.012;2023-11-25T03:05:06;14.02;;;5.18;;
76373;SDS011;65197;50.164;8.012;2023-11-25T03:07:33;13.98;;;6.47;;
76373;SDS011;65197;50.164;8.012;2023-11-25T03:10:01;13.98;;;5.82;;
76373;SDS011;65197;50.164;8.012;2023-11-25T03:12:27;15.75;;;7.15;;
76373;SDS011;65197;50.164;8.012;2023-11-25T03:14:52;17.02;;;6.88;;
76373;SDS011;65197;50.164;8.012;2023-11-25T03:17:17;16.27;;;7.05;;
76373;SDS011;65197;50.164;8.012;2023-11-25T03:19:43;15.30;;;7.32;;
76373;SDS011;65197;50.164;8.012;2023-11-25T03:22:10;20.80;;;7.85;;
76373;SDS011;65197;50.164;8.012;2023-11-25T03:24:35;13.85;;;6.13;;
76373;SDS011;65197;50.164;8.012;2023-11-25T03:27:01;11.45;;;6.22;;
76373;SDS011;65197;50.164;8.012;2023-11-25T03:29:27;11.32;;;6.05;;
76373;SDS011;65197;50.164;8.012;2023-11-25T03:31:52;16.65;;;6.75;;
76373;SDS011;65197;50.164;8.012;2023-11-25T03:34:18;17.65;;;6.95;;
76373;SDS011;65197;50.164;8.012;2023-11-25T03:36:43;13.80;;;6.30;;
76373;SDS011;65197;50.164;8.012;2023-11-25T03:39:09;13.00;;;6.43;;
76373;SDS011;65197;50.164;8.012;2023-11-25T03:41:35;14.15;;;7.20;;
76373;SDS011;65197;50.164;8.012;2023-11-25T03:44:00;14.50;;;5.93;;
76373;SDS011;65197;50.164;8.012;2023-11-25T03:46:26;16.80;;;6.10;;
76373;SDS011;65197;50.164;8.012;2023-11-25T03:48:52;13.95;;;5.90;;
76373;SDS011;65197;50.164;8.012;2023-11-25T03:51:19;12.18;;;5.07;;
76373;SDS011;65197;50.164;8.012;2023-11-25T03:53:44;15.43;;;5.65;;
76373;SDS011;65197;50.164;8.012;2023-11-25T03:56:10;12.05;;;4.90;;
76373;SDS011;65197;50.164;8.012;2023-11-25T03:58:38;14.70;;;5.63;;
76373;SDS011;65197;50.164;8.012;2023-11-25T04:01:04;17.13;;;6.40;;
76373;SDS011;65197;50.164;8.012;2023-11-25T04:03:29;13.60;;;5.60;;
76373;SDS011;65197;50.164;8.012;2023-11-25T04:05:54;14.50;;;5.72;;
76373;SDS011;65197;50.164;8.012;2023-11-25T04:08:22;13.50;;;5.15;;
76373;SDS011;65197;50.164;8.012;2023-11-25T04:10:48;14.00;;;6.47;;
76373;SDS011;65197;50.164;8.012;2023-11-25T04:13:14;19.65;;;6.57;;
76373;SDS011;65197;50.164;8.012;2023-11-25T04:15:40;14.95;;;6.60;;
76373;SDS011;65197;50.164;8.012;2023-11-25T04:18:05;24.05;;;8.43;;
76373;SDS011;65197;50.164;8.012;2023-11-25T04:20:31;18.85;;;8.13;;
76373;SDS011;65197;50.164;8.012;2023-11-25T04:22:58;24.60;;;7.45;;
76373;SDS011;65197;50.164;8.012;2023-11-25T04:25:30;24.83;;;8.95;;
76373;SDS011;65197;50.164;8.012;2023-11-25T04:27:56;20.02;;;7.25;;
76373;SDS011;65197;50.164;8.012;2023-11-25T04:30:21;22.63;;;8.60;;
76373;SDS011;65197;50.164;8.012;2023-11-25T04:32:48;21.65;;;8.20;;
76373;SDS011;65197;50.164;8.012;2023-11-25T04:35:14;29.45;;;8.52;;
76373;SDS011;65197;50.164;8.012;2023-11-25T04:37:42;17.15;;;6.38;;
76373;SDS011;65197;50.164;8.012;2023-11-25T04:40:10;23.58;;;8.05;;
76373;SDS011;65197;50.164;8.012;2023-11-25T04:42:37;20.88;;;7.93;;
76373;SDS011;65197;50.164;8.012;2023-11-25T04:47:37;17.80;;;6.32;;
76373;SDS011;65197;50.164;8.012;2023-11-25T04:50:03;25.90;;;8.48;;
76373;SDS011;65197;50.164;8.012;2023-11-25T04:52:29;25.00;;;6.57;;
76373;SDS011;65197;50.164;8.012;2023-11-25T04:54:55;20.67;;;6.88;;
76373;SDS011;65197;50.164;8.012;2023-11-25T04:57:20;20.95;;;7.82;;
76373;SDS011;65197;50.164;8.012;2023-11-25T04:59:45;23.63;;;8.07;;
76373;SDS011;65197;50.164;8.012;2023-11-25T05:02:11;16.52;;;6.72;;
76373;SDS011;65197;50.164;8.012;2023-11-25T05:04:36;16.75;;;8.02;;
76373;SDS011;65197;50.164;8.012;2023-11-25T05:07:02;25.60;;;7.22;;
76373;SDS011;65197;50.164;8.012;2023-11-25T05:09:28;22.38;;;6.88;;
76373;SDS011;65197;50.164;8.012;2023-11-25T05:11:54;23.83;;;6.78;;
76373;SDS011;65197;50.164;8.012;2023-11-25T05:14:19;27.48;;;7.40;;
76373;SDS011;65197;50.164;8.012;2023-11-25T05:16:45;22.98;;;7.20;;
76373;SDS011;65197;50.164;8.012;2023-11-25T05:19:11;18.60;;;6.13;;
76373;SDS011;65197;50.164;8.012;2023-11-25T05:21:37;13.48;;;5.75;;
76373;SDS011;65197;50.164;8.012;2023-11-25T05:24:02;22.80;;;6.03;;
76373;SDS011;65197;50.164;8.012;2023-11-25T05:26:29;18.45;;;7.30;;
76373;SDS011;65197;50.164;8.012;2023-11-25T05:28:54;16.98;;;6.25;;
76373;SDS011;65197;50.164;8.012;2023-11-25T05:31:20;19.77;;;6.20;;
76373;SDS011;65197;50.164;8.012;2023-11-25T05:33:48;16.42;;;5.28;;
76373;SDS011;65197;50.164;8.012;2023-11-25T05:36:13;15.25;;;5.45;;
76373;SDS011;65197;50.164;8.012;2023-11-25T05:38:39;19.35;;;5.90;;
76373;SDS011;65197;50.164;8.012;2023-11-25T05:41:04;18.17;;;5.70;;
76373;SDS011;65197;50.164;8.012;2023-11-25T05:43:29;17.15;;;6.75;;
76373;SDS011;65197;50.164;8.012;2023-11-25T05:45:55;18.08;;;5.57;;
76373;SDS011;65197;50.164;8.012;2023-11-25T05:48:23;14.80;;;5.55;;
76373;SDS011;65197;50.164;8.012;2023-11-25T05:50:50;17.15;;;5.75;;
76373;SDS011;65197;50.164;8.012;2023-11-25T05:53:15;17.67;;;5.97;;
76373;SDS011;65197;50.164;8.012;2023-11-25T05:55:41;18.50;;;6.32;;
76373;SDS011;65197;50.164;8.012;2023-11-25T05:58:06;19.35;;;5.68;;
76373;SDS011;65197;50.164;8.012;2023-11-25T06:00:32;18.50;;;5.65;;
76373;SDS011;65197;50.164;8.012;2023-11-25T06:02:58;15.80;;;6.03;;
76373;SDS011;65197;50.164;8.012;2023-11-25T06:05:23;13.45;;;4.97;;
76373;SDS011;65197;50.164;8.012;2023-11-25T06:07:49;13.93;;;4.70;;
76373;SDS011;65197;50.164;8.012;2023-11-25T06:10:15;20.10;;;5.00;;
76373;SDS011;65197;50.164;8.012;2023-11-25T06:12:40;12.25;;;4.85;;
76373;SDS011;65197;50.164;8.012;2023-11-25T06:15:07;14.85;;;5.25;;
76373;SDS011;65197;50.164;8.012;2023-11-25T06:17:34;13.10;;;5.07;;
76373;SDS011;65197;50.164;8.012;2023-11-25T06:20:00;24.17;;;5.68;;
76373;SDS011;65197;50.164;8.012;2023-11-25T06:22:25;16.50;;;4.90;;
76373;SDS011;65197;50.164;8.012;2023-11-25T06:24:51;18.23;;;5.35;;
76373;SDS011;65197;50.164;8.012;2023-11-25T06:27:17;18.65;;;5.57;;
76373;SDS011;65197;50.164;8.012;2023-11-25T06:29:44;21.98;;;5.47;;
76373;SDS011;65197;50.164;8.012;2023-11-25T06:32:10;13.98;;;5.60;;
76373;SDS011;65197;50.164;8.012;2023-11-25T06:34:36;19.65;;;5.20;;
76373;SDS011;65197;50.164;8.012;2023-11-25T06:37:02;15.20;;;5.63;;
76373;SDS011;65197;50.164;8.012;2023-11-25T06:39:27;19.83;;;6.68;;
76373;SDS011;65197;50.164;8.012;2023-11-25T06:41:56;19.00;;;4.55;;
76373;SDS011;65197;50.164;8.012;2023-11-25T06:44:23;11.18;;;4.72;;
76373;SDS011;65197;50.164;8.012;2023-11-25T06:46:49;16.35;;;4.35;;
76373;SDS011;65197;50.164;8.012;2023-11-25T06:49:14;19.40;;;3.97;;
76373;SDS011;65197;50.164;8.012;2023-11-25T06:51:40;22.20;;;4.35;;
76373;SDS011;65197;50.164;8.012;2023-11-25T06:54:06;11.88;;;3.63;;
76373;SDS011;65197;50.164;8.012;2023-11-25T06:56:33;9.73;;;3.60;;
76373;SDS011;65197;50.164;8.012;2023-11-25T06:58:59;16.83;;;4.00;;
76373;SDS011;65197;50.164;8.012;2023-11-25T07:01:25;12.27;;;4.10;;
76373;SDS011;65197;50.164;8.012;2023-11-25T07:03:50;12.65;;;3.10;;
76373;SDS011;65197;50.164;8.012;2023-11-25T07:06:16;13.38;;;3.10;;
76373;SDS011;65197;50.164;8.012;2023-11-25T07:08:46;12.98;;;3.55;;
76373;SDS011;65197;50.164;8.012;2023-11-25T07:11:12;15.98;;;3.92;;
76373;SDS011;65197;50.164;8.012;2023-11-25T07:13:41;8.75;;;3.95;;
76373;SDS011;65197;50.164;8.012;2023-11-25T07:16:08;9.02;;;2.90;;
76373;SDS011;65197;50.164;8.012;2023-11-25T07:21:07;11.20;;;3.03;;
76373;SDS011;65197;50.164;8.012;2023-11-25T07:23:38;15.55;;;3.03;;
76373;SDS011;65197;50.164;8.012;2023-11-25T07:26:04;10.25;;;2.70;;
76373;SDS011;65197;50.164;8.012;2023-11-25T07:28:31;13.70;;;2.83;;
76373;SDS011;65197;50.164;8.012;2023-11-25T07:30:58;6.93;;;2.92;;
76373;SDS011;65197;50.164;8.012;2023-11-25T07:35:52;8.85;;;3.30;;
76373;SDS011;65197;50.164;8.012;2023-11-25T07:38:18;12.38;;;2.97;;
76373;SDS011;65197;50.164;8.012;2023-11-25T07:40:43;11.55;;;3.50;;
76373;SDS011;65197;50.164;8.012;2023-11-25T07:43:08;4.63;;;2.42;;
76373;SDS011;65197;50.164;8.012;2023-11-25T07:45:34;10.93;;;2.92;;
76373;SDS011;65197;50.164;8.012;2023-11-25T07:47:59;11.10;;;2.65;;
76373;SDS011;65197;50.164;8.012;2023-11-25T07:50:24;7.55;;;2.20;;
76373;SDS011;65197;50.164;8.012;2023-11-25T07:52:51;14.85;;;2.72;;
76373;SDS011;65197;50.164;8.012;2023-11-25T07:55:16;7.93;;;2.70;;
76373;SDS011;65197;50.164;8.012;2023-11-25T07:57:42;14.70;;;2.50;;
76373;SDS011;65197;50.164;8.012;2023-11-25T08:00:07;10.68;;;2.42;;
76373;SDS011;65197;50.164;8.012;2023-11-25T08:02:37;14.10;;;2.88;;
76373;SDS011;65197;50.164;8.012;2023-11-25T08:05:02;12.13;;;2.20;;
76373;SDS011;65197;50.164;8.012;2023-11-25T08:07:28;9.23;;;3.15;;
76373;SDS011;65197;50.164;8.012;2023-11-25T08:09:54;10.80;;;3.83;;
76373;SDS011;65197;50.164;8.012;2023-11-25T08:12:19;6.47;;;2.42;;
76373;SDS011;65197;50.164;8.012;2023-11-25T08:14:45;9.70;;;2.20;;
76373;SDS011;65197;50.164;8.012;2023-11-25T08:17:12;11.23;;;2.55;;
76373;SDS011;65197;50.164;8.012;2023-11-25T08:19:37;11.95;;;2.60;;
76373;SDS011;65197;50.164;8.012;2023-11-25T08:22:02;10.90;;;2.50;;
76373;SDS011;65197;50.164;8.012;2023-11-25T08:24:28;13.20;;;2.83;;
76373;SDS011;65197;50.164;8.012;2023-11-25T08:26:53;7.57;;;2.25;;
76373;SDS011;65197;50.164;8.012;2023-11-25T08:29:19;13.68;;;2.58;;
76373;SDS011;65197;50.164;8.012;2023-11-25T08:31:45;6.78;;;2.47;;
76373;SDS011;65197;50.164;8.012;2023-11-25T08:34:10;6.05;;;1.92;;
76373;SDS011;65197;50.164;8.012;2023-11-25T08:36:37;8.63;;;2.30;;
76373;SDS011;65197;50.164;8.012;2023-11-25T08:39:23;11.27;;;2.70;;
76373;SDS011;65197;50.164;8.012;2023-11-25T08:41:52;9.50;;;2.88;;
76373;SDS011;65197;50.164;8.012;2023-11-25T08:44:23;8.05;;;2.63;;
76373;SDS011;65197;50.164;8.012;2023-11-25T08:46:49;7.65;;;2.13;;
76373;SDS011;65197;50.164;8.012;2023-11-25T08:49:15;8.10;;;2.97;;
76373;SDS011;65197;50.164;8.012;2023-11-25T08:51:43;11.77;;;2.75;;
76373;SDS011;65197;50.164;8.012;2023-11-25T08:54:15;10.35;;;2.60;;
76373;SDS011;65197;50.164;8.012;2023-11-25T08:56:42;10.95;;;2.85;;
76373;SDS011;65197;50.164;8.012;2023-11-25T08:59:12;11.02;;;2.67;;
76373;SDS011;65197;50.164;8.012;2023-11-25T09:01:42;7.38;;;2.13;;
76373;SDS011;65197;50.164;8.012;2023-11-25T09:04:08;9.90;;;2.67;;
76373;SDS011;65197;50.164;8.012;2023-11-25T09:06:38;6.47;;;2.17;;
76373;SDS011;65197;50.164;8.012;2023-11-25T09:09:05;9.10;;;2.67;;
76373;SDS011;65197;50.164;8.012;2023-11-25T09:11:32;10.80;;;2.28;;
76373;SDS011;65197;50.164;8.012;2023-11-25T09:13:58;9.02;;;3.22;;
76373;SDS011;65197;50.164;8.012;2023-11-25T09:16:24;9.10;;;2.63;;
76373;SDS011;65197;50.164;8.012;2023-11-25T09:18:50;9.68;;;2.42;;
76373;SDS011;65197;50.164;8.012;2023-11-25T09:21:16;10.05;;;2.90;;
76373;SDS011;65197;50.164;8.012;2023-11-25T09:23:41;15.93;;;3.03;;
76373;SDS011;65197;50.164;8.012;2023-11-25T09:26:08;15.55;;;7.85;;
76373;SDS011;65197;50.164;8.012;2023-11-25T09:28:33;18.55;;;3.70;;
76373;SDS011;65197;50.164;8.012;2023-11-25T09:31:00;6.10;;;2.90;;
76373;SDS011;65197;50.164;8.012;2023-11-25T09:33:25;8.52;;;2.65;;
76373;SDS011;65197;50.164;8.012;2023-11-25T09:35:51;5.95;;;1.80;;
76373;SDS011;65197;50.164;8.012;2023-11-25T09:38:17;4.80;;;2.55;;
76373;SDS011;65197;50.164;8.012;2023-11-25T09:40:42;6.15;;;2.78;;
76373;SDS011;65197;50.164;8.012;2023-11-25T09:43:08;6.07;;;2.05;;
76373;SDS011;65197;50.164;8.012;2023-11-25T09:45:34;10.27;;;2.30;;
76373;SDS011;65197;50.164;8.012;2023-11-25T09:48:00;33.22;;;4.18;;
76373;SDS011;65197;50.164;8.012;2023-11-25T09:50:26;30.77;;;5.57;;
76373;SDS011;65197;50.164;8.012;2023-11-25T09:52:52;16.63;;;3.47;;
76373;SDS011;65197;50.164;8.012;2023-11-25T09:55:20;4.88;;;2.70;;
76373;SDS011;65197;50.164;8.012;2023-11-25T09:57:48;18.83;;;3.45;;
76373;SDS011;65197;50.164;8.012;2023-11-25T10:00:15;11.55;;;2.60;;
76373;SDS011;65197;50.164;8.012;2023-11-25T10:02:42;8.43;;;2.30;;
76373;SDS011;65197;50.164;8.012;2023-11-25T10:05:09;6.22;;;2.22;;
76373;SDS011;65197;50.164;8.012;2023-11-25T10:07:34;7.68;;;2.53;;
76373;SDS011;65197;50.164;8.012;2023-11-25T10:09:59;8.95;;;2.90;;
76373;SDS011;65197;50.164;8.012;2023-11-25T10:12:26;7.78;;;2.97;;
76373;SDS011;65197;50.164;8.012;2023-11-25T10:14:51;4.50;;;2.20;;
76373;SDS011;65197;50.164;8.012;2023-11-25T10:17:18;7.85;;;2.55;;
76373;SDS011;65197;50.164;8.012;2023-11-25T10:19:45;7.93;;;2.63;;
76373;SDS011;65197;50.164;8.012;2023-11-25T10:22:16;5.28;;;2.08;;
76373;SDS011;65197;50.164;8.012;2023-11-25T10:24:50;13.77;;;3.22;;
76373;SDS011;65197;50.164;8.012;2023-11-25T10:27:17;6.82;;;2.65;;
76373;SDS011;65197;50.164;8.012;2023-11-25T10:29:43;18.73;;;9.50;;
76373;SDS011;65197;50.164;8.012;2023-11-25T10:32:09;11.10;;;3.28;;
76373;SDS011;65197;50.164;8.012;2023-11-25T10:34:35;10.82;;;5.53;;
76373;SDS011;65197;50.164;8.012;2023-11-25T10:37:01;6.30;;;2.83;;
76373;SDS011;65197;50.164;8.012;2023-11-25T10:39:35;8.30;;;3.03;;
76373;SDS011;65197;50.164;8.012;2023-11-25T10:42:04;6.30;;;3.15;;
76373;SDS011;65197;50.164;8.012;2023-11-25T10:44:35;10.00;;;2.67;;
76373;SDS011;65197;50.164;8.012;2023-11-25T10:47:00;6.13;;;2.80;;
76373;SDS011;65197;50.164;8.012;2023-11-25T10:49:27;7.05;;;2.90;;
76373;SDS011;65197;50.164;8.012;2023-11-25T10:54:23;10.10;;;4.25;;
76373;SDS011;65197;50.164;8.012;2023-11-25T10:56:56;10.85;;;4.55;;
76373;SDS011;65197;50.164;8.012;2023-11-25T10:59:24;8.23;;;4.95;;
76373;SDS011;65197;50.164;8.012;2023-11-25T11:01:53;4.53;;;3.17;;
76373;SDS011;65197;50.164;8.012;2023-11-25T11:04:33;8.10;;;3.33;;
76373;SDS011;65197;50.164;8.012;2023-11-25T11:07:06;10.20;;;3.53;;
76373;SDS011;65197;50.164;8.012;2023-11-25T11:09:40;5.97;;;3.03;;
76373;SDS011;65197;50.164;8.012;2023-11-25T11:12:07;7.40;;;3.22;;
76373;SDS011;65197;50.164;8.012;2023-11-25T11:14:37;7.82;;;3.33;;
76373;SDS011;65197;50.164;8.012;2023-11-25T11:19:49;8.48;;;3.05;;
76373;SDS011;65197;50.164;8.012;2023-11-25T11:22:18;5.30;;;2.42;;
76373;SDS011;65197;50.164;8.012;2023-11-25T11:24:55;7.13;;;3.15;;
76373;SDS011;65197;50.164;8.012;2023-11-25T11:30:13;8.30;;;2.58;;
76373;SDS011;65197;50.164;8.012;2023-11-25T11:32:48;9.02;;;2.92;;
76373;SDS011;65197;50.164;8.012;2023-11-25T11:35:14;8.05;;;4.20;;
76373;SDS011;65197;50.164;8.012;2023-11-25T11:37:46;10.48;;;3.65;;
76373;SDS011;65197;50.164;8.012;2023-11-25T11:40:13;9.75;;;4.00;;
76373;SDS011;65197;50.164;8.012;2023-11-25T11:42:39;9.05;;;3.78;;
76373;SDS011;65197;50.164;8.012;2023-11-25T11:45:06;10.25;;;3.92;;
76373;SDS011;65197;50.164;8.012;2023-11-25T11:47:54;12.65;;;3.53;;
76373;SDS011;65197;50.164;8.012;2023-11-25T11:50:28;6.97;;;3.92;;
76373;SDS011;65197;50.164;8.012;2023-11-25T11:55:37;6.55;;;3.67;;
76373;SDS011;65197;50.164;8.012;2023-11-25T11:58:22;10.60;;;4.38;;
76373;SDS011;65197;50.164;8.012;2023-11-25T12:03:32;6.85;;;3.45;;
76373;SDS011;65197;50.164;8.012;2023-11-25T12:05:58;8.43;;;4.10;;
76373;SDS011;65197;50.164;8.012;2023-11-25T12:08:24;8.15;;;4.20;;
76373;SDS011;65197;50.164;8.012;2023-11-25T12:10:50;9.15;;;4.00;;
76373;SDS011;65197;50.164;8.012;2023-11-25T12:13:26;9.30;;;3.33;;
76373;SDS011;65197;50.164;8.012;2023-11-25T12:15:56;8.32;;;3.33;;
76373;SDS011;65197;50.164;8.012;2023-11-25T12:18:28;4.88;;;3.55;;
76373;SDS011;65197;50.164;8.012;2023-11-25T12:20:55;8.73;;;3.38;;
76373;SDS011;65197;50.164;8.012;2023-11-25T12:23:22;7.65;;;3.72;;
76373;SDS011;65197;50.164;8.012;2023-11-25T12:25:50;7.63;;;4.30;;
76373;SDS011;65197;50.164;8.012;2023-11-25T12:28:15;7.75;;;3.72;;
76373;SDS011;65197;50.164;8.012;2023-11-25T12:30:41;10.73;;;5.10;;
76373;SDS011;65197;50.164;8.012;2023-11-25T12:33:07;11.40;;;6.43;;
76373;SDS011;65197;50.164;8.012;2023-11-25T12:35:34;9.18;;;4.68;;
76373;SDS011;65197;50.164;8.012;2023-11-25T12:38:00;26.42;;;12.88;;
76373;SDS011;65197;50.164;8.012;2023-11-25T12:40:27;7.60;;;3.50;;
76373;SDS011;65197;50.164;8.012;2023-11-25T12:42:53;7.35;;;3.97;;
76373;SDS011;65197;50.164;8.012;2023-11-25T12:45:32;7.30;;;3.65;;
76373;SDS011;65197;50.164;8.012;2023-11-25T12:47:59;11.23;;;4.03;;
76373;SDS011;65197;50.164;8.012;2023-11-25T12:50:26;7.30;;;3.75;;
76373;SDS011;65197;50.164;8.012;2023-11-25T12:55:33;7.85;;;4.30;;
76373;SDS011;65197;50.164;8.012;2023-11-25T12:58:12;13.02;;;4.03;;
76373;SDS011;65197;50.164;8.012;2023-11-25T13:00:49;9.23;;;3.20;;
76373;SDS011;65197;50.164;8.012;2023-11-25T13:05:59;10.02;;;4.10;;
76373;SDS011;65197;50.164;8.012;2023-11-25T13:08:34;5.93;;;3.88;;
76373;SDS011;65197;50.164;8.012;2023-11-25T13:11:02;11.70;;;3.72;;
76373;SDS011;65197;50.164;8.012;2023-11-25T13:13:29;7.57;;;2.95;;
76373;SDS011;65197;50.164;8.012;2023-11-25T13:15:59;8.57;;;2.80;;
76373;SDS011;65197;50.164;8.012;2023-11-25T13:18:25;6.15;;;3.00;;
76373;SDS011;65197;50.164;8.012;2023-11-25T13:20:51;5.22;;;3.15;;
76373;SDS011;65197;50.164;8.012;2023-11-25T13:23:18;12.73;;;3.38;;
76373;SDS011;65197;50.164;8.012;2023-11-25T13:25:45;5.75;;;3.13;;
76373;SDS011;65197;50.164;8.012;2023-11-25T13:28:11;5.25;;;3.00;;
76373;SDS011;65197;50.164;8.012;2023-11-25T13:30:36;7.00;;;3.10;;
76373;SDS011;65197;50.164;8.012;2023-11-25T13:33:02;6.97;;;2.67;;
76373;SDS011;65197;50.164;8.012;2023-11-25T13:35:28;6.70;;;3.55;;
76373;SDS011;65197;50.164;8.012;2023-11-25T13:37:55;6.75;;;3.53;;
76373;SDS011;65197;50.164;8.012;2023-11-25T13:40:25;6.35;;;3.10;;
76373;SDS011;65197;50.164;8.012;2023-11-25T13:43:13;8.18;;;3.15;;
76373;SDS011;65197;50.164;8.012;2023-11-25T13:45:39;4.88;;;2.88;;
76373;SDS011;65197;50.164;8.012;2023-11-25T13:48:08;6.15;;;2.75;;
76373;SDS011;65197;50.164;8.012;2023-11-25T13:50:35;6.43;;;3.28;;
76373;SDS011;65197;50.164;8.012;2023-11-25T13:53:01;6.47;;;2.65;;
76373;SDS011;65197;50.164;8.012;2023-11-25T13:55:27;6.30;;;3.38;;
76373;SDS011;65197;50.164;8.012;2023-11-25T13:57:55;6.53;;;3.05;;
76373;SDS011;65197;50.164;8.012;2023-11-25T14:00:20;12.10;;;3.55;;
76373;SDS011;65197;50.164;8.012;2023-11-25T14:02:50;5.25;;;2.53;;
76373;SDS011;65197;50.164;8.012;2023-11-25T14:05:17;9.57;;;3.10;;
76373;SDS011;65197;50.164;8.012;2023-11-25T14:07:43;7.63;;;2.95;;
76373;SDS011;65197;50.164;8.012;2023-11-25T14:10:10;5.00;;;2.95;;
76373;SDS011;65197;50.164;8.012;2023-11-25T14:12:36;6.35;;;2.58;;
76373;SDS011;65197;50.164;8.012;2023-11-25T14:15:03;11.15;;;3.65;;
76373;SDS011;65197;50.164;8.012;2023-11-25T14:17:29;5.88;;;3.03;;
76373;SDS011;65197;50.164;8.012;2023-11-25T14:19:55;8.32;;;3.00;;
76373;SDS011;65197;50.164;8.012;2023-11-25T14:22:21;8.48;;;3.33;;
76373;SDS011;65197;50.164;8.012;2023-11-25T14:24:46;6.50;;;3.20;;
76373;SDS011;65197;50.164;8.012;2023-11-25T14:27:12;10.23;;;3.65;;
76373;SDS011;65197;50.164;8.012;2023-11-25T14:29:37;7.22;;;3.60;;
76373;SDS011;65197;50.164;8.012;2023-11-25T14:32:03;8.35;;;3.40;;
76373;SDS011;65197;50.164;8.012;2023-11-25T14:34:30;7.05;;;3.53;;
76373;SDS011;65197;50.164;8.012;2023-11-25T14:36:55;6.75;;;3.40;;
76373;SDS011;65197;50.164;8.012;2023-11-25T14:39:21;5.63;;;2.67;;
76373;SDS011;65197;50.164;8.012;2023-11-25T14:41:58;6.13;;;2.28;;
76373;SDS011;65197;50.164;8.012;2023-11-25T14:44:24;5.93;;;3.17;;
76373;SDS011;65197;50.164;8.012;2023-11-25T14:46:50;8.00;;;2.75;;
76373;SDS011;65197;50.164;8.012;2023-11-25T14:49:15;6.25;;;2.85;;
76373;SDS011;65197;50.164;8.012;2023-11-25T14:51:41;7.75;;;3.38;;
76373;SDS011;65197;50.164;8.012;2023-11-25T14:54:06;9.63;;;3.00;;
76373;SDS011;65197;50.164;8.012;2023-11-25T14:56:32;5.03;;;2.78;;
76373;SDS011;65197;50.164;8.012;2023-11-25T14:58:58;8.88;;;3.80;;
76373;SDS011;65197;50.164;8.012;2023-11-25T15:01:24;8.75;;;3.55;;
76373;SDS011;65197;50.164;8.012;2023-11-25T15:03:50;10.70;;;4.68;;
76373;SDS011;65197;50.164;8.012;2023-11-25T15:06:15;5.47;;;3.72;;